메인 페이지
위성 영상 10일간 예보기후바다 날씨 사이클론 낙뢰 공항FAQ 뉴스레터 소개
날씨 : 유럽 아프리카 북아메리카 남아메리카 아시아 오스트레일리아-오세아니아 기타
언어 문의하기

칭다오, 중국

칭다오 류팅 국제공항

위도: 36-04N, 경도: 120-20E, 고도: 77m


METAR: ZSQD 041800Z 06003MPS 5000 -RA BR NSC 21/20 Q1009 NOSIG
TAF: ZSQD 041512Z 0418/0518 12003MPS 3500 BR SCT030 TX29/0506Z TN20/0420Z TEMPO 0422/0504 2500 SHRA BKN020 FEW030CB BECMG 0502/0503 06004MPS

시각: 02:42 (18:42 UTC)

현재 날씨관측

예보는 42분 전, 18:00시(UTC)에 발표되었습니다.
동북동6kt
온도 21°C
습도 94%
기압 1009 hPa
시정: 5000m
약한비, 박무

단위계 변경

예보

예보는 3 시간 30분 전, 15:12시(UTC)에 발표되었습니다.
예보 대상 시간: 04일 18시부터 05일 18시까지 (UTC)
동남동6kt
시정: 3500m
고도 3000ft 상공 구름 보통
박무
일시적
04일 22시부터 05일 04시까지 (UTC)
시정: 2500m
고도 2000ft 상공 구름 많음
고도 3000ft 상공 구름 조금, 적란운.
소나기
전환 중
05일 02시부터 05일 03시까지 (UTC)
동북동8kt
이 웹사이트상의 정보에 대하여 어떠한 법적 책임을 지지 않습니다 (면책 조항)
날씨 : 유럽 아프리카 북아메리카 남아메리카 아시아 오스트레일리아-오세아니아 기타
위성 영상 10일간 예보기후바다 날씨 사이클론 낙뢰 공항FAQ 언어 문의하기 뉴스레터 소개